createdAt,value
2022-08-26T00:01:54.325Z,28.02
2022-08-26T00:04:23.651Z,27.96
2022-08-26T00:06:50.967Z,27.93
2022-08-26T00:09:18.028Z,27.91
2022-08-26T00:11:45.786Z,27.88
2022-08-26T00:14:13.708Z,27.79
2022-08-26T00:16:47.277Z,27.69
2022-08-26T00:19:20.723Z,27.65
2022-08-26T00:21:49.678Z,27.59
2022-08-26T00:24:19.158Z,27.52
2022-08-26T00:26:46.379Z,27.52
2022-08-26T00:29:13.608Z,27.49
2022-08-26T00:31:42.102Z,27.52
2022-08-26T00:34:11.268Z,27.52
2022-08-26T00:36:39.707Z,27.57
2022-08-26T00:39:08.449Z,27.48
2022-08-26T00:41:39.856Z,27.44
2022-08-26T00:44:11.127Z,27.44
2022-08-26T00:46:46.480Z,27.43
2022-08-26T00:49:19.844Z,27.43
2022-08-26T00:51:53.394Z,27.40
2022-08-26T00:54:26.771Z,27.37
2022-08-26T00:57:02.745Z,27.32
2022-08-26T00:59:32.989Z,27.34
2022-08-26T01:02:02.684Z,27.18
2022-08-26T01:04:33.470Z,27.03
2022-08-26T01:07:01.588Z,27.07
2022-08-26T01:09:29.899Z,27.02
2022-08-26T01:12:00.956Z,26.96
2022-08-26T01:14:32.657Z,26.96
2022-08-26T01:17:02.917Z,26.92
2022-08-26T01:19:38.064Z,26.91
2022-08-26T01:22:30.570Z,26.81
2022-08-26T01:25:00.638Z,26.72
2022-08-26T01:27:32.914Z,26.67
2022-08-26T01:30:02.630Z,26.57
2022-08-26T01:32:33.205Z,26.60
2022-08-26T01:35:00.844Z,26.63
2022-08-26T01:37:34.588Z,26.67
2022-08-26T01:40:01.786Z,26.63
2022-08-26T01:42:29.806Z,26.58
2022-08-26T01:45:19.514Z,26.56
2022-08-26T01:47:48.692Z,26.59
2022-08-26T01:50:27.880Z,26.54
2022-08-26T01:52:59.497Z,26.60
2022-08-26T01:55:33.081Z,26.61
2022-08-26T01:58:04.746Z,26.62
2022-08-26T02:00:33.576Z,26.67
2022-08-26T02:03:21.484Z,26.69
2022-08-26T02:05:54.133Z,26.71
2022-08-26T02:08:31.077Z,26.58
2022-08-26T02:10:58.187Z,26.46
2022-08-26T02:13:29.982Z,26.31
2022-08-26T02:15:58.103Z,26.17
2022-08-26T02:18:25.878Z,26.03
2022-08-26T02:20:54.400Z,26.02
2022-08-26T02:23:21.256Z,26.01
2022-08-26T02:26:03.843Z,26.01
2022-08-26T02:28:35.848Z,26.04
2022-08-26T02:31:03.295Z,25.91
2022-08-26T02:33:31.926Z,25.75
2022-08-26T02:35:58.825Z,25.67
2022-08-26T02:38:26.112Z,25.52
2022-08-26T02:40:52.934Z,25.29
2022-08-26T02:43:19.819Z,25.31
2022-08-26T02:46:00.056Z,25.30
2022-08-26T02:48:28.482Z,25.22
2022-08-26T02:50:55.315Z,25.22
2022-08-26T02:53:25.418Z,25.28
2022-08-26T02:55:52.748Z,25.35
2022-08-26T02:58:20.601Z,25.38
2022-08-26T03:00:52.769Z,25.38
2022-08-26T03:03:20.778Z,25.45
2022-08-26T03:05:51.276Z,25.52
2022-08-26T03:08:18.189Z,25.56
2022-08-26T03:10:46.478Z,25.52
2022-08-26T03:13:15.596Z,25.45
2022-08-26T03:15:42.500Z,25.43
2022-08-26T03:18:09.774Z,25.45
2022-08-26T03:20:37.100Z,25.49
2022-08-26T03:23:04.031Z,25.39
2022-08-26T03:25:31.263Z,25.32
2022-08-26T03:27:59.439Z,25.35
2022-08-26T03:30:45.120Z,25.38
2022-08-26T03:33:13.737Z,25.38
2022-08-26T03:35:43.467Z,25.35
2022-08-26T03:38:10.863Z,25.33
2022-08-26T03:40:38.750Z,25.32
2022-08-26T03:43:09.859Z,25.31
2022-08-26T03:45:37.651Z,25.30
2022-08-26T03:48:05.433Z,25.11
2022-08-26T03:50:34.263Z,25.08
2022-08-26T03:53:03.978Z,25.00
2022-08-26T03:55:32.757Z,24.95
2022-08-26T03:58:00.780Z,25.00
2022-08-26T04:00:28.132Z,24.93
2022-08-26T04:02:55.514Z,24.82
2022-08-26T04:05:23.344Z,24.81
2022-08-26T04:07:50.814Z,24.85
2022-08-26T04:10:20.235Z,24.81
2022-08-26T04:12:47.260Z,24.72
2022-08-26T04:15:16.128Z,24.70
2022-08-26T04:17:44.625Z,24.76
2022-08-26T04:20:16.259Z,24.79
2022-08-26T04:22:43.277Z,24.83
2022-08-26T04:25:10.884Z,24.81
2022-08-26T04:27:37.786Z,24.83
2022-08-26T04:30:07.589Z,24.84
2022-08-26T04:32:35.649Z,24.85
2022-08-26T04:35:04.577Z,24.76
2022-08-26T04:37:31.512Z,24.78
2022-08-26T04:39:59.570Z,24.82
2022-08-26T04:42:26.463Z,24.89
2022-08-26T04:44:53.305Z,24.90
2022-08-26T04:47:20.133Z,24.94
2022-08-26T04:49:46.969Z,24.92
2022-08-26T04:52:13.728Z,24.91
2022-08-26T04:54:41.988Z,25.01
2022-08-26T04:57:08.930Z,24.97
2022-08-26T04:59:39.100Z,25.03
2022-08-26T05:02:06.891Z,25.12
2022-08-26T05:04:34.079Z,25.08
2022-08-26T05:07:02.834Z,25.12
2022-08-26T05:09:30.471Z,25.12
2022-08-26T05:11:57.408Z,25.22
2022-08-26T05:14:24.367Z,25.24
2022-08-26T05:16:51.748Z,25.31
2022-08-26T05:19:18.927Z,25.40
2022-08-26T05:21:47.743Z,25.39
2022-08-26T05:24:14.689Z,25.48
2022-08-26T05:26:42.151Z,25.49
2022-08-26T05:29:11.963Z,25.51
2022-08-26T05:31:38.781Z,25.65
2022-08-26T05:34:05.947Z,25.70
2022-08-26T05:36:35.611Z,25.91
2022-08-26T05:39:05.680Z,25.95
2022-08-26T05:41:36.394Z,26.18
2022-08-26T05:44:07.069Z,26.15
2022-08-26T05:46:35.088Z,26.30
2022-08-26T05:49:02.697Z,26.67
2022-08-26T05:51:31.018Z,27.01
2022-08-26T05:53:58.503Z,27.56
2022-08-26T05:56:27.423Z,28.17
2022-08-26T05:58:56.299Z,28.46
2022-08-26T06:01:26.952Z,28.37
2022-08-26T06:03:57.494Z,28.34
2022-08-26T06:06:29.373Z,28.46
2022-08-26T06:08:59.407Z,29.03
2022-08-26T06:11:28.682Z,29.36
2022-08-26T06:14:03.091Z,29.84
2022-08-26T06:16:38.605Z,30.08
2022-08-26T06:19:10.998Z,30.63
2022-08-26T06:21:40.036Z,30.85
2022-08-26T06:24:28.485Z,31.47
2022-08-26T06:26:57.918Z,32.21
2022-08-26T06:29:28.106Z,32.60
2022-08-26T06:31:56.679Z,33.14
2022-08-26T06:34:26.634Z,33.75
2022-08-26T06:37:02.462Z,34.53
2022-08-26T06:39:30.739Z,35.10
2022-08-26T06:41:59.369Z,35.65
2022-08-26T06:44:26.764Z,35.96
2022-08-26T06:46:53.851Z,36.08
2022-08-26T06:49:25.825Z,35.77
2022-08-26T06:51:58.343Z,36.00
2022-08-26T06:54:26.631Z,36.42
2022-08-26T06:56:53.717Z,36.95
2022-08-26T06:59:21.829Z,37.94
2022-08-26T07:01:49.822Z,37.98
2022-08-26T07:04:20.107Z,37.88
2022-08-26T07:06:52.415Z,37.91
2022-08-26T07:09:26.962Z,37.83
2022-08-26T07:11:56.275Z,37.85
2022-08-26T07:14:24.900Z,37.98
2022-08-26T07:16:53.453Z,37.92
2022-08-26T07:19:29.861Z,38.32
2022-08-26T07:22:03.898Z,38.36
2022-08-26T07:24:35.742Z,38.70
2022-08-26T07:27:08.786Z,38.41
2022-08-26T07:29:37.450Z,37.85
2022-08-26T07:32:05.155Z,38.42
2022-08-26T07:34:33.337Z,38.54
2022-08-26T07:37:00.599Z,38.92
2022-08-26T07:39:28.361Z,39.12
2022-08-26T07:42:01.340Z,39.16
2022-08-26T07:44:29.530Z,39.53
2022-08-26T07:46:56.611Z,40.28
2022-08-26T07:49:26.947Z,40.87
2022-08-26T07:51:55.942Z,41.56
2022-08-26T07:54:27.015Z,42.18
2022-08-26T07:56:55.913Z,41.85
2022-08-26T07:59:23.357Z,41.59
2022-08-26T08:01:50.668Z,41.57
2022-08-26T08:04:21.877Z,42.18
2022-08-26T08:06:53.794Z,42.43
2022-08-26T08:09:22.424Z,42.57
2022-08-26T08:11:49.860Z,42.22
2022-08-26T08:14:18.514Z,41.68
2022-08-26T08:16:51.279Z,41.55
2022-08-26T08:19:23.110Z,41.16
2022-08-26T08:21:50.803Z,40.67
2022-08-26T08:24:18.069Z,40.14
2022-08-26T08:26:45.927Z,39.85
2022-08-26T08:29:13.210Z,39.17
2022-08-26T08:31:58.420Z,39.18
2022-08-26T08:34:28.223Z,40.20
2022-08-26T08:36:56.197Z,40.66
2022-08-26T08:39:24.292Z,40.80
2022-08-26T08:41:56.922Z,40.82
2022-08-26T08:47:00.865Z,39.88
2022-08-26T08:49:28.389Z,39.73
2022-08-26T08:52:05.277Z,39.11
2022-08-26T08:54:33.875Z,38.40
2022-08-26T08:57:13.582Z,38.13
2022-08-26T08:59:53.258Z,38.53
2022-08-26T09:02:44.064Z,38.62
2022-08-26T09:05:23.052Z,38.47
2022-08-26T09:08:01.970Z,37.97
2022-08-26T09:10:47.147Z,37.58
2022-08-26T09:13:25.386Z,37.05
2022-08-26T09:16:10.105Z,36.68
2022-08-26T09:19:19.149Z,36.38
2022-08-26T09:21:46.496Z,36.04
2022-08-26T09:24:20.214Z,35.83
2022-08-26T09:26:49.776Z,35.65
2022-08-26T09:29:26.217Z,35.58
2022-08-26T09:32:16.082Z,35.59
2022-08-26T09:35:07.418Z,35.72
2022-08-26T09:37:43.587Z,35.82
2022-08-26T09:40:27.070Z,36.03
2022-08-26T09:43:09.662Z,36.11
2022-08-26T09:45:38.795Z,36.32
2022-08-26T09:48:06.716Z,36.49
2022-08-26T09:50:40.961Z,36.88
2022-08-26T09:53:14.855Z,37.38
2022-08-26T09:55:47.783Z,38.00
2022-08-26T09:58:38.078Z,38.77
2022-08-26T10:01:14.866Z,39.58
2022-08-26T10:03:43.331Z,40.83
2022-08-26T10:06:16.265Z,41.53
2022-08-26T10:08:47.418Z,42.25
2022-08-26T10:11:31.056Z,42.88
2022-08-26T10:14:08.509Z,42.90
2022-08-26T10:16:48.301Z,43.20
2022-08-26T10:19:29.083Z,43.36
2022-08-26T10:22:13.849Z,43.39
2022-08-26T10:24:55.856Z,43.57
2022-08-26T10:27:36.585Z,43.13
2022-08-26T10:30:17.276Z,42.91
2022-08-26T10:32:53.891Z,43.00
2022-08-26T10:35:21.291Z,43.16
2022-08-26T10:37:54.106Z,43.18
2022-08-26T10:40:26.496Z,42.81
2022-08-26T10:43:10.905Z,42.95
2022-08-26T10:45:46.576Z,42.97
2022-08-26T10:48:21.277Z,42.29
2022-08-26T10:50:49.113Z,42.21
2022-08-26T10:53:37.834Z,42.40
2022-08-26T10:56:46.412Z,42.57
2022-08-26T10:59:22.139Z,42.64
2022-08-26T11:02:03.880Z,42.77
2022-08-26T11:04:42.374Z,42.95
2022-08-26T11:07:44.259Z,43.57
2022-08-26T11:10:17.278Z,43.83
2022-08-26T11:12:45.344Z,43.94
2022-08-26T11:15:24.519Z,44.09
2022-08-26T11:17:51.682Z,44.38
2022-08-26T11:20:47.112Z,44.80
2022-08-26T11:23:16.939Z,45.45
2022-08-26T11:25:55.944Z,45.79
2022-08-26T11:28:44.542Z,45.98
2022-08-26T11:31:33.211Z,45.88
2022-08-26T11:34:08.852Z,45.75
2022-08-26T11:36:46.655Z,45.67
2022-08-26T11:39:19.637Z,45.18
2022-08-26T11:41:52.883Z,44.73
2022-08-26T11:44:26.275Z,44.39
2022-08-26T11:47:03.117Z,44.75
2022-08-26T11:49:31.768Z,44.86
2022-08-26T11:52:09.457Z,44.27
2022-08-26T11:54:36.462Z,43.72
2022-08-26T11:57:11.774Z,43.11
2022-08-26T11:59:41.083Z,42.92
2022-08-26T12:02:17.894Z,42.24
2022-08-26T12:04:49.479Z,41.92
2022-08-26T12:07:24.127Z,41.60
2022-08-26T12:10:04.697Z,41.86
2022-08-26T12:12:42.438Z,41.75
2022-08-26T12:15:14.505Z,41.81
2022-08-26T12:17:43.264Z,41.54
2022-08-26T12:20:20.723Z,41.11
2022-08-26T12:22:48.127Z,40.80
2022-08-26T12:25:24.068Z,40.63
2022-08-26T12:27:53.655Z,40.57
2022-08-26T12:30:26.231Z,40.66
2022-08-26T12:33:21.922Z,40.31
2022-08-26T12:35:54.781Z,40.09
2022-08-26T12:38:26.720Z,39.67
2022-08-26T12:40:53.681Z,39.26
2022-08-26T12:43:38.477Z,39.01
2022-08-26T12:46:06.659Z,38.51
2022-08-26T12:48:36.435Z,38.43
2022-08-26T12:51:06.020Z,38.21
2022-08-26T12:53:35.141Z,38.18
2022-08-26T12:56:17.142Z,38.06
2022-08-26T12:58:44.164Z,38.11
2022-08-26T13:01:11.020Z,37.97
2022-08-26T13:03:45.432Z,37.91
2022-08-26T13:06:22.439Z,37.75
2022-08-26T13:09:00.669Z,37.70
2022-08-26T13:11:32.678Z,37.67
2022-08-26T13:14:01.037Z,37.56
2022-08-26T13:16:29.139Z,37.74
2022-08-26T13:19:01.482Z,38.00
2022-08-26T13:21:29.942Z,38.06
2022-08-26T13:24:33.307Z,37.83
2022-08-26T13:27:01.769Z,37.87
2022-08-26T13:29:28.709Z,37.74
2022-08-26T13:31:55.700Z,37.70
2022-08-26T13:34:23.397Z,37.70
2022-08-26T13:36:52.426Z,37.78
2022-08-26T13:39:20.224Z,37.95
2022-08-26T13:41:47.283Z,37.83
2022-08-26T13:44:14.097Z,37.90
2022-08-26T13:46:41.078Z,37.55
2022-08-26T13:49:08.112Z,37.61
2022-08-26T13:51:35.683Z,37.44
2022-08-26T13:54:02.485Z,37.23
2022-08-26T13:56:29.875Z,37.02
2022-08-26T13:58:58.010Z,36.93
2022-08-26T14:01:25.304Z,37.00
2022-08-26T14:03:52.721Z,36.75
2022-08-26T14:06:25.222Z,36.75
2022-08-26T14:08:52.104Z,36.64
2022-08-26T14:11:20.463Z,36.61
2022-08-26T14:13:47.185Z,36.65
2022-08-26T14:16:33.298Z,36.58
2022-08-26T14:19:01.426Z,36.35
2022-08-26T14:21:31.106Z,36.28
2022-08-26T14:24:00.952Z,36.01
2022-08-26T14:26:29.763Z,35.97
2022-08-26T14:28:58.632Z,35.94
2022-08-26T14:31:26.904Z,35.79
2022-08-26T14:33:57.027Z,35.66
2022-08-26T14:36:31.273Z,35.37
2022-08-26T14:39:05.595Z,35.29
2022-08-26T14:41:34.414Z,35.19
2022-08-26T14:44:08.151Z,34.93
2022-08-26T14:46:42.413Z,34.65
2022-08-26T14:49:10.738Z,34.53
2022-08-26T14:51:38.704Z,34.27
2022-08-26T14:54:14.603Z,34.19
2022-08-26T14:56:49.190Z,34.28
2022-08-26T14:59:22.481Z,34.30
2022-08-26T15:01:50.145Z,34.28
2022-08-26T15:04:17.003Z,34.36
2022-08-26T15:06:44.225Z,34.44
2022-08-26T15:09:11.342Z,34.24
2022-08-26T15:11:38.153Z,34.13
2022-08-26T15:14:05.468Z,34.04
2022-08-26T15:16:32.622Z,33.81
2022-08-26T15:19:00.755Z,33.64
2022-08-26T15:21:27.570Z,33.54
2022-08-26T15:23:54.718Z,33.48
2022-08-26T15:26:23.050Z,33.52
2022-08-26T15:28:50.097Z,33.57
2022-08-26T15:31:17.664Z,33.64
2022-08-26T15:33:45.636Z,33.79
2022-08-26T15:36:12.399Z,33.83
2022-08-26T15:38:42.423Z,33.86
2022-08-26T15:41:10.212Z,33.66
2022-08-26T15:43:38.254Z,33.52
2022-08-26T15:46:10.985Z,33.12
2022-08-26T15:48:38.459Z,32.98
2022-08-26T15:51:06.852Z,32.87
2022-08-26T15:53:35.126Z,32.79
2022-08-26T15:56:02.252Z,32.76
2022-08-26T15:58:29.723Z,32.76
2022-08-26T16:00:57.567Z,32.78
2022-08-26T16:03:24.563Z,32.62
2022-08-26T16:05:51.548Z,32.47
2022-08-26T16:08:18.928Z,32.55
2022-08-26T16:10:50.348Z,32.67
2022-08-26T16:13:19.974Z,32.62
2022-08-26T16:15:50.001Z,32.45
2022-08-26T16:18:16.980Z,32.09
2022-08-26T16:20:55.327Z,32.17
2022-08-26T16:23:38.402Z,32.38
2022-08-26T16:26:10.576Z,32.39
2022-08-26T16:28:38.392Z,32.45
2022-08-26T16:31:06.565Z,32.31
2022-08-26T16:33:33.598Z,32.38
2022-08-26T16:36:00.404Z,32.41
2022-08-26T16:38:27.200Z,32.44
2022-08-26T16:40:53.948Z,32.32
2022-08-26T16:43:20.673Z,32.30
2022-08-26T16:45:47.382Z,32.23
2022-08-26T16:48:14.187Z,32.15
2022-08-26T16:50:41.871Z,32.08
2022-08-26T16:53:15.943Z,32.02
2022-08-26T16:55:50.134Z,31.76
2022-08-26T16:58:17.864Z,31.79
2022-08-26T17:00:45.320Z,31.40
2022-08-26T17:03:12.331Z,31.47
2022-08-26T17:05:40.128Z,31.30
2022-08-26T17:08:07.381Z,31.25
2022-08-26T17:10:34.592Z,31.31
2022-08-26T17:13:01.451Z,31.03
2022-08-26T17:15:28.528Z,31.08
2022-08-26T17:17:56.086Z,31.02
2022-08-26T17:20:24.749Z,31.10
2022-08-26T17:22:53.343Z,31.11
2022-08-26T17:25:24.044Z,31.09
2022-08-26T17:27:50.947Z,30.99
2022-08-26T17:30:18.065Z,30.96
2022-08-26T17:32:45.397Z,30.93
2022-08-26T17:35:13.721Z,30.91
2022-08-26T17:37:41.238Z,31.01
2022-08-26T17:40:12.589Z,31.14
2022-08-26T17:42:40.391Z,31.01
2022-08-26T17:45:08.568Z,30.98
2022-08-26T17:47:36.027Z,30.78
2022-08-26T17:50:04.492Z,30.77
2022-08-26T17:52:31.238Z,30.74
2022-08-26T17:54:58.936Z,30.58
2022-08-26T17:57:26.514Z,30.56
2022-08-26T17:59:54.361Z,30.55
2022-08-26T18:02:21.629Z,30.28
2022-08-26T18:04:48.839Z,30.33
2022-08-26T18:07:16.148Z,30.27
2022-08-26T18:09:43.589Z,30.28
2022-08-26T18:12:11.037Z,30.14
2022-08-26T18:14:38.520Z,30.18
2022-08-26T18:17:05.316Z,30.15
2022-08-26T18:19:32.141Z,30.13
2022-08-26T18:21:59.002Z,30.04
2022-08-26T18:24:25.850Z,29.98
2022-08-26T18:26:52.615Z,29.85
2022-08-26T18:29:20.003Z,29.78
2022-08-26T18:31:48.445Z,29.74
2022-08-26T18:34:19.691Z,29.68
2022-08-26T18:36:46.918Z,29.71
2022-08-26T18:39:15.234Z,29.68
2022-08-26T18:41:47.345Z,29.71
2022-08-26T18:44:16.492Z,29.62
2022-08-26T18:46:44.447Z,29.53
2022-08-26T18:49:12.993Z,29.53
2022-08-26T18:51:40.276Z,29.55
2022-08-26T18:54:07.699Z,29.52
2022-08-26T18:56:36.194Z,29.44
2022-08-26T18:59:05.162Z,29.40
2022-08-26T19:01:33.300Z,29.39
2022-08-26T19:04:02.789Z,29.23
2022-08-26T19:06:32.781Z,29.26
2022-08-26T19:09:00.371Z,29.25
2022-08-26T19:11:32.000Z,29.13
2022-08-26T19:14:07.253Z,29.03
2022-08-26T19:16:35.219Z,28.91
2022-08-26T19:19:02.653Z,28.88
2022-08-26T19:21:31.327Z,28.80
2022-08-26T19:23:59.488Z,28.78
2022-08-26T19:26:27.520Z,28.74
2022-08-26T19:28:54.561Z,28.66
2022-08-26T19:31:21.483Z,28.53
2022-08-26T19:33:48.483Z,28.54
2022-08-26T19:36:18.449Z,28.53
2022-08-26T19:38:45.935Z,28.47
2022-08-26T19:41:14.722Z,28.40
2022-08-26T19:43:42.373Z,28.35
2022-08-26T19:46:13.736Z,28.34
2022-08-26T19:48:43.887Z,28.35
2022-08-26T19:51:15.602Z,28.18
2022-08-26T19:53:43.989Z,28.00
2022-08-26T19:56:11.303Z,28.00
2022-08-26T19:58:38.705Z,27.97
2022-08-26T20:01:06.321Z,27.94
2022-08-26T20:03:33.969Z,27.89
2022-08-26T20:06:03.448Z,27.92
2022-08-26T20:08:30.231Z,28.03
2022-08-26T20:11:01.409Z,28.08
2022-08-26T20:13:28.388Z,28.21
2022-08-26T20:15:55.139Z,28.07
2022-08-26T20:18:48.083Z,28.04
2022-08-26T20:21:27.348Z,28.07
2022-08-26T20:24:04.865Z,28.11
2022-08-26T20:26:37.000Z,28.02
2022-08-26T20:29:05.097Z,27.99
2022-08-26T20:31:32.193Z,27.98
2022-08-26T20:33:59.050Z,27.95
2022-08-26T20:36:27.485Z,27.91
2022-08-26T20:38:55.316Z,27.91
2022-08-26T20:41:25.313Z,27.94
2022-08-26T20:43:56.107Z,27.96
2022-08-26T20:46:25.216Z,28.04
2022-08-26T20:48:53.017Z,27.95
2022-08-26T20:51:22.855Z,27.96
2022-08-26T20:53:50.525Z,27.89
2022-08-26T20:56:24.207Z,27.91
2022-08-26T20:58:53.339Z,27.78
2022-08-26T21:01:23.733Z,27.81
2022-08-26T21:03:55.194Z,27.81
2022-08-26T21:06:22.231Z,27.74
2022-08-26T21:08:49.998Z,27.68
2022-08-26T21:11:19.751Z,27.63
2022-08-26T21:14:04.499Z,27.59
2022-08-26T21:16:36.127Z,27.56
2022-08-26T21:19:08.239Z,27.47
2022-08-26T21:21:35.632Z,27.41
2022-08-26T21:24:02.642Z,27.37
2022-08-26T21:26:29.410Z,27.44
2022-08-26T21:28:56.281Z,27.42
2022-08-26T21:31:25.055Z,27.38
2022-08-26T21:33:52.274Z,27.31
2022-08-26T21:36:19.984Z,27.28
2022-08-26T21:38:48.281Z,27.22
2022-08-26T21:41:24.189Z,27.25
2022-08-26T21:43:53.811Z,27.16
2022-08-26T21:46:24.543Z,27.09
2022-08-26T21:48:55.342Z,27.11
2022-08-26T21:51:24.157Z,27.10
2022-08-26T21:53:52.801Z,27.15
2022-08-26T21:56:21.184Z,27.16
2022-08-26T21:58:48.655Z,27.20
2022-08-26T22:01:21.446Z,27.26
2022-08-26T22:03:49.614Z,27.28
2022-08-26T22:06:19.017Z,27.31
2022-08-26T22:08:45.805Z,27.32
2022-08-26T22:11:13.447Z,27.21
2022-08-26T22:13:42.440Z,27.28
2022-08-26T22:16:10.355Z,27.32
2022-08-26T22:18:38.484Z,27.39
2022-08-26T22:21:11.366Z,27.35
2022-08-26T22:23:38.953Z,27.33
2022-08-26T22:26:07.644Z,27.35
2022-08-26T22:28:35.497Z,27.28
2022-08-26T22:31:02.387Z,27.24
2022-08-26T22:33:29.502Z,27.22
2022-08-26T22:35:56.320Z,27.30
2022-08-26T22:38:23.900Z,27.33
2022-08-26T22:40:56.986Z,27.32
2022-08-26T22:43:24.962Z,27.34
2022-08-26T22:45:53.077Z,27.36
2022-08-26T22:48:23.399Z,27.40
2022-08-26T22:50:51.050Z,27.37
2022-08-26T22:53:18.704Z,27.38
2022-08-26T22:55:46.486Z,27.31
2022-08-26T22:58:15.568Z,27.24
2022-08-26T23:00:44.149Z,27.18
2022-08-26T23:03:11.842Z,27.12
2022-08-26T23:05:39.559Z,27.16
2022-08-26T23:08:07.179Z,27.16
2022-08-26T23:10:34.466Z,27.20
2022-08-26T23:13:01.723Z,27.11
2022-08-26T23:15:28.680Z,26.94
2022-08-26T23:17:58.680Z,26.95
2022-08-26T23:20:26.836Z,26.86
2022-08-26T23:22:54.869Z,26.84
2022-08-26T23:25:22.101Z,26.73
2022-08-26T23:27:51.398Z,26.71
2022-08-26T23:30:21.825Z,26.71
2022-08-26T23:32:49.094Z,26.69
2022-08-26T23:35:20.040Z,26.65
2022-08-26T23:37:50.127Z,26.70
2022-08-26T23:40:25.458Z,26.65
2022-08-26T23:42:54.217Z,26.64
2022-08-26T23:45:22.514Z,26.63
2022-08-26T23:47:52.475Z,26.53
2022-08-26T23:50:21.660Z,26.53
2022-08-26T23:53:08.735Z,26.45
2022-08-26T23:55:37.603Z,26.47
2022-08-26T23:58:05.693Z,26.48
